Disclaimer

Please do not use the information listed here in-flight or in-navigation, as they are not provided to us by the airports but are provided by volunteers, so they might be outdated.

Search


Regions


Airport information page

Radio informations:
Tower (TWR) - 130.2 MHz

Airport informations:
Latitude: 46° 10' 35.58" N
Longitude: 021° 15' 43.28" E
Elevation: 352 feet - 107 meters
Operating hours: N/A
Operating agency: Civil government, landing fees and diplomatic clearance may be required
Timezone: UTC+2(+3DT)
Fuel: N/A

Runway information:
09/27 - 6562 x 148 feet< - >2000 x 45 meters

Recent METARs:
LRAR 181900Z AUTO 05005KT 010V070 9999 NCD 05/M02 Q1017
LRAR 181930Z AUTO 02004KT 9999 -DZ FEW009/// SCT030/// BKN043/// 05/M02 Q1017
LRAR 182000Z AUTO 09005KT 060V120 8000 -SN FEW005/// SCT015/// BKN021/// 05/M00 Q1018

Airport on the map: